sensor_id;sensor_type;location;lat;lon;timestamp;P1;durP1;ratioP1;P2;durP2;ratioP2
8252;SDS011;61313;48.396;10.008;2023-07-13T00:01:43;10.60;;;7.10;;
8252;SDS011;61313;48.396;10.008;2023-07-13T00:04:11;8.50;;;7.00;;
8252;SDS011;61313;48.396;10.008;2023-07-13T00:06:37;7.93;;;7.13;;
8252;SDS011;61313;48.396;10.008;2023-07-13T00:09:02;12.80;;;9.23;;
8252;SDS011;61313;48.396;10.008;2023-07-13T00:11:28;10.97;;;7.47;;
8252;SDS011;61313;48.396;10.008;2023-07-13T00:13:53;11.70;;;6.80;;
8252;SDS011;61313;48.396;10.008;2023-07-13T00:16:19;14.37;;;7.20;;
8252;SDS011;61313;48.396;10.008;2023-07-13T00:18:45;16.40;;;7.70;;
8252;SDS011;61313;48.396;10.008;2023-07-13T00:21:11;10.23;;;6.50;;
8252;SDS011;61313;48.396;10.008;2023-07-13T00:23:39;10.93;;;7.00;;
8252;SDS011;61313;48.396;10.008;2023-07-13T00:26:07;12.03;;;7.57;;
8252;SDS011;61313;48.396;10.008;2023-07-13T00:28:34;12.07;;;7.60;;
8252;SDS011;61313;48.396;10.008;2023-07-13T00:31:00;19.03;;;8.60;;
8252;SDS011;61313;48.396;10.008;2023-07-13T00:33:29;11.27;;;7.60;;
8252;SDS011;61313;48.396;10.008;2023-07-13T00:35:54;8.90;;;6.53;;
8252;SDS011;61313;48.396;10.008;2023-07-13T00:38:21;13.40;;;8.43;;
8252;SDS011;61313;48.396;10.008;2023-07-13T00:40:47;8.33;;;5.63;;
8252;SDS011;61313;48.396;10.008;2023-07-13T00:43:17;5.80;;;4.70;;
8252;SDS011;61313;48.396;10.008;2023-07-13T00:48:10;7.00;;;5.13;;
8252;SDS011;61313;48.396;10.008;2023-07-13T00:50:39;5.50;;;4.83;;
8252;SDS011;61313;48.396;10.008;2023-07-13T00:53:05;5.43;;;4.73;;
8252;SDS011;61313;48.396;10.008;2023-07-13T00:55:31;7.73;;;4.60;;
8252;SDS011;61313;48.396;10.008;2023-07-13T00:57:56;5.83;;;3.90;;
8252;SDS011;61313;48.396;10.008;2023-07-13T01:00:22;5.10;;;3.83;;
8252;SDS011;61313;48.396;10.008;2023-07-13T01:02:51;13.07;;;4.50;;
8252;SDS011;61313;48.396;10.008;2023-07-13T01:05:18;9.20;;;4.23;;
8252;SDS011;61313;48.396;10.008;2023-07-13T01:07:45;5.53;;;3.37;;
8252;SDS011;61313;48.396;10.008;2023-07-13T01:10:13;4.57;;;3.60;;
8252;SDS011;61313;48.396;10.008;2023-07-13T01:12:39;5.73;;;3.50;;
8252;SDS011;61313;48.396;10.008;2023-07-13T01:15:05;5.87;;;3.10;;
8252;SDS011;61313;48.396;10.008;2023-07-13T01:17:51;16.70;;;3.30;;
8252;SDS011;61313;48.396;10.008;2023-07-13T01:20:16;5.33;;;3.30;;
8252;SDS011;61313;48.396;10.008;2023-07-13T01:22:42;5.00;;;3.40;;
8252;SDS011;61313;48.396;10.008;2023-07-13T01:25:07;4.10;;;3.10;;
8252;SDS011;61313;48.396;10.008;2023-07-13T01:27:33;8.30;;;3.30;;
8252;SDS011;61313;48.396;10.008;2023-07-13T01:29:59;8.13;;;3.33;;
8252;SDS011;61313;48.396;10.008;2023-07-13T01:32:28;5.90;;;3.40;;
8252;SDS011;61313;48.396;10.008;2023-07-13T01:34:56;5.70;;;3.20;;
8252;SDS011;61313;48.396;10.008;2023-07-13T01:37:22;7.90;;;3.53;;
8252;SDS011;61313;48.396;10.008;2023-07-13T01:39:48;7.73;;;3.50;;
8252;SDS011;61313;48.396;10.008;2023-07-13T01:42:14;5.83;;;3.30;;
8252;SDS011;61313;48.396;10.008;2023-07-13T01:44:40;6.40;;;3.33;;
8252;SDS011;61313;48.396;10.008;2023-07-13T01:47:05;9.90;;;4.63;;
8252;SDS011;61313;48.396;10.008;2023-07-13T01:49:31;5.37;;;3.40;;
8252;SDS011;61313;48.396;10.008;2023-07-13T01:51:56;8.07;;;2.97;;
8252;SDS011;61313;48.396;10.008;2023-07-13T01:54:22;7.70;;;3.10;;
8252;SDS011;61313;48.396;10.008;2023-07-13T01:56:47;5.97;;;2.80;;
8252;SDS011;61313;48.396;10.008;2023-07-13T01:59:13;8.30;;;3.10;;
8252;SDS011;61313;48.396;10.008;2023-07-13T02:01:38;5.10;;;3.20;;
8252;SDS011;61313;48.396;10.008;2023-07-13T02:04:04;5.27;;;2.70;;
8252;SDS011;61313;48.396;10.008;2023-07-13T02:06:29;8.13;;;4.00;;
8252;SDS011;61313;48.396;10.008;2023-07-13T02:08:55;5.47;;;3.30;;
8252;SDS011;61313;48.396;10.008;2023-07-13T02:11:20;3.63;;;3.13;;
8252;SDS011;61313;48.396;10.008;2023-07-13T02:13:46;10.50;;;3.50;;
8252;SDS011;61313;48.396;10.008;2023-07-13T02:16:11;9.63;;;3.83;;
8252;SDS011;61313;48.396;10.008;2023-07-13T02:18:37;3.93;;;2.77;;
8252;SDS011;61313;48.396;10.008;2023-07-13T02:21:02;5.67;;;3.50;;
8252;SDS011;61313;48.396;10.008;2023-07-13T02:23:28;10.90;;;4.60;;
8252;SDS011;61313;48.396;10.008;2023-07-13T02:25:57;4.50;;;3.30;;
8252;SDS011;61313;48.396;10.008;2023-07-13T02:28:24;4.90;;;2.90;;
8252;SDS011;61313;48.396;10.008;2023-07-13T02:30:49;6.17;;;2.90;;
8252;SDS011;61313;48.396;10.008;2023-07-13T02:33:15;4.90;;;2.87;;
8252;SDS011;61313;48.396;10.008;2023-07-13T02:35:40;6.70;;;3.00;;
8252;SDS011;61313;48.396;10.008;2023-07-13T02:38:06;3.40;;;2.70;;
8252;SDS011;61313;48.396;10.008;2023-07-13T02:40:31;4.83;;;2.80;;
8252;SDS011;61313;48.396;10.008;2023-07-13T02:43:00;7.03;;;3.07;;
8252;SDS011;61313;48.396;10.008;2023-07-13T02:45:27;10.57;;;3.50;;
8252;SDS011;61313;48.396;10.008;2023-07-13T02:47:52;4.93;;;2.77;;
8252;SDS011;61313;48.396;10.008;2023-07-13T02:50:18;4.80;;;2.40;;
8252;SDS011;61313;48.396;10.008;2023-07-13T02:52:44;4.50;;;3.20;;
8252;SDS011;61313;48.396;10.008;2023-07-13T02:55:09;11.90;;;4.53;;
8252;SDS011;61313;48.396;10.008;2023-07-13T02:57:35;17.57;;;3.77;;
8252;SDS011;61313;48.396;10.008;2023-07-13T03:00:00;29.57;;;4.77;;
8252;SDS011;61313;48.396;10.008;2023-07-13T03:02:30;4.57;;;2.50;;
8252;SDS011;61313;48.396;10.008;2023-07-13T03:04:55;5.77;;;3.03;;
8252;SDS011;61313;48.396;10.008;2023-07-13T03:07:21;6.00;;;3.00;;
8252;SDS011;61313;48.396;10.008;2023-07-13T03:09:46;9.43;;;2.93;;
8252;SDS011;61313;48.396;10.008;2023-07-13T03:12:11;6.43;;;3.20;;
8252;SDS011;61313;48.396;10.008;2023-07-13T03:14:37;6.33;;;3.33;;
8252;SDS011;61313;48.396;10.008;2023-07-13T03:17:02;10.90;;;3.10;;
8252;SDS011;61313;48.396;10.008;2023-07-13T03:19:28;3.93;;;2.37;;
8252;SDS011;61313;48.396;10.008;2023-07-13T03:21:53;5.33;;;2.57;;
8252;SDS011;61313;48.396;10.008;2023-07-13T03:24:19;18.10;;;4.30;;
8252;SDS011;61313;48.396;10.008;2023-07-13T03:26:45;7.30;;;2.87;;
8252;SDS011;61313;48.396;10.008;2023-07-13T03:29:10;3.60;;;2.70;;
8252;SDS011;61313;48.396;10.008;2023-07-13T03:31:36;8.53;;;2.57;;
8252;SDS011;61313;48.396;10.008;2023-07-13T03:34:02;9.17;;;3.17;;
8252;SDS011;61313;48.396;10.008;2023-07-13T03:36:28;32.80;;;5.23;;
8252;SDS011;61313;48.396;10.008;2023-07-13T03:38:56;25.03;;;4.83;;
8252;SDS011;61313;48.396;10.008;2023-07-13T03:41:23;26.57;;;4.70;;
8252;SDS011;61313;48.396;10.008;2023-07-13T03:43:49;13.60;;;3.20;;
8252;SDS011;61313;48.396;10.008;2023-07-13T03:46:15;8.77;;;2.40;;
8252;SDS011;61313;48.396;10.008;2023-07-13T03:48:43;17.53;;;4.70;;
8252;SDS011;61313;48.396;10.008;2023-07-13T03:51:10;15.17;;;4.00;;
8252;SDS011;61313;48.396;10.008;2023-07-13T03:53:39;24.83;;;4.23;;
8252;SDS011;61313;48.396;10.008;2023-07-13T03:56:06;8.10;;;2.70;;
8252;SDS011;61313;48.396;10.008;2023-07-13T03:58:39;18.20;;;3.40;;
8252;SDS011;61313;48.396;10.008;2023-07-13T04:01:06;30.83;;;4.30;;
8252;SDS011;61313;48.396;10.008;2023-07-13T04:03:33;8.87;;;3.60;;
8252;SDS011;61313;48.396;10.008;2023-07-13T04:05:59;5.77;;;2.67;;
8252;SDS011;61313;48.396;10.008;2023-07-13T04:08:26;3.53;;;2.73;;
8252;SDS011;61313;48.396;10.008;2023-07-13T04:10:56;3.43;;;2.70;;
8252;SDS011;61313;48.396;10.008;2023-07-13T04:13:22;6.53;;;2.50;;
8252;SDS011;61313;48.396;10.008;2023-07-13T04:15:48;6.73;;;2.73;;
8252;SDS011;61313;48.396;10.008;2023-07-13T04:18:13;7.90;;;3.33;;
8252;SDS011;61313;48.396;10.008;2023-07-13T04:20:39;22.07;;;4.07;;
8252;SDS011;61313;48.396;10.008;2023-07-13T04:23:04;6.27;;;3.80;;
8252;SDS011;61313;48.396;10.008;2023-07-13T04:25:30;4.77;;;2.67;;
8252;SDS011;61313;48.396;10.008;2023-07-13T04:27:55;5.23;;;3.33;;
8252;SDS011;61313;48.396;10.008;2023-07-13T04:30:21;7.50;;;3.00;;
8252;SDS011;61313;48.396;10.008;2023-07-13T04:32:47;13.83;;;3.07;;
8252;SDS011;61313;48.396;10.008;2023-07-13T04:35:13;18.07;;;3.90;;
8252;SDS011;61313;48.396;10.008;2023-07-13T04:37:39;8.57;;;3.57;;
8252;SDS011;61313;48.396;10.008;2023-07-13T04:40:05;10.30;;;2.70;;
8252;SDS011;61313;48.396;10.008;2023-07-13T04:42:31;9.57;;;3.70;;
8252;SDS011;61313;48.396;10.008;2023-07-13T04:44:57;8.47;;;3.10;;
8252;SDS011;61313;48.396;10.008;2023-07-13T04:47:22;16.30;;;4.87;;
8252;SDS011;61313;48.396;10.008;2023-07-13T04:49:48;12.83;;;3.27;;
8252;SDS011;61313;48.396;10.008;2023-07-13T04:52:13;11.07;;;3.30;;
8252;SDS011;61313;48.396;10.008;2023-07-13T04:54:39;20.63;;;4.20;;
8252;SDS011;61313;48.396;10.008;2023-07-13T04:57:04;13.80;;;3.77;;
8252;SDS011;61313;48.396;10.008;2023-07-13T04:59:33;11.33;;;3.40;;
8252;SDS011;61313;48.396;10.008;2023-07-13T05:01:58;26.07;;;5.63;;
8252;SDS011;61313;48.396;10.008;2023-07-13T05:04:24;20.30;;;4.63;;
8252;SDS011;61313;48.396;10.008;2023-07-13T05:06:49;3.37;;;2.40;;
8252;SDS011;61313;48.396;10.008;2023-07-13T05:09:15;5.00;;;2.33;;
8252;SDS011;61313;48.396;10.008;2023-07-13T05:11:40;15.90;;;3.50;;
8252;SDS011;61313;48.396;10.008;2023-07-13T05:14:06;12.27;;;4.03;;
8252;SDS011;61313;48.396;10.008;2023-07-13T05:16:31;12.43;;;3.30;;
8252;SDS011;61313;48.396;10.008;2023-07-13T05:18:57;13.23;;;3.93;;
8252;SDS011;61313;48.396;10.008;2023-07-13T05:21:23;7.43;;;3.20;;
8252;SDS011;61313;48.396;10.008;2023-07-13T05:23:48;22.60;;;5.10;;
8252;SDS011;61313;48.396;10.008;2023-07-13T05:26:13;7.10;;;4.30;;
8252;SDS011;61313;48.396;10.008;2023-07-13T05:28:39;21.00;;;5.20;;
8252;SDS011;61313;48.396;10.008;2023-07-13T05:31:05;12.90;;;5.43;;
8252;SDS011;61313;48.396;10.008;2023-07-13T05:33:33;49.70;;;7.73;;
8252;SDS011;61313;48.396;10.008;2023-07-13T05:35:58;17.50;;;6.23;;
8252;SDS011;61313;48.396;10.008;2023-07-13T05:38:25;21.63;;;5.63;;
8252;SDS011;61313;48.396;10.008;2023-07-13T05:40:52;9.47;;;5.23;;
8252;SDS011;61313;48.396;10.008;2023-07-13T05:43:19;12.70;;;4.70;;
8252;SDS011;61313;48.396;10.008;2023-07-13T05:45:44;15.80;;;5.23;;
8252;SDS011;61313;48.396;10.008;2023-07-13T05:48:09;37.27;;;8.20;;
8252;SDS011;61313;48.396;10.008;2023-07-13T05:50:35;20.53;;;7.07;;
8252;SDS011;61313;48.396;10.008;2023-07-13T05:53:00;26.37;;;6.90;;
8252;SDS011;61313;48.396;10.008;2023-07-13T05:55:26;17.90;;;6.90;;
8252;SDS011;61313;48.396;10.008;2023-07-13T05:57:51;31.20;;;6.80;;
8252;SDS011;61313;48.396;10.008;2023-07-13T06:00:16;16.70;;;5.23;;
8252;SDS011;61313;48.396;10.008;2023-07-13T06:02:42;11.67;;;5.67;;
8252;SDS011;61313;48.396;10.008;2023-07-13T06:05:08;11.73;;;6.30;;
8252;SDS011;61313;48.396;10.008;2023-07-13T06:07:33;19.03;;;5.27;;
8252;SDS011;61313;48.396;10.008;2023-07-13T06:09:59;15.63;;;5.83;;
8252;SDS011;61313;48.396;10.008;2023-07-13T06:12:24;43.20;;;6.20;;
8252;SDS011;61313;48.396;10.008;2023-07-13T06:14:50;13.13;;;3.93;;
8252;SDS011;61313;48.396;10.008;2023-07-13T06:17:15;12.60;;;3.77;;
8252;SDS011;61313;48.396;10.008;2023-07-13T06:19:41;16.87;;;4.07;;
8252;SDS011;61313;48.396;10.008;2023-07-13T06:22:06;12.03;;;4.57;;
8252;SDS011;61313;48.396;10.008;2023-07-13T06:24:32;16.03;;;3.50;;
8252;SDS011;61313;48.396;10.008;2023-07-13T06:26:57;19.03;;;4.00;;
8252;SDS011;61313;48.396;10.008;2023-07-13T06:29:22;8.97;;;3.70;;
8252;SDS011;61313;48.396;10.008;2023-07-13T06:31:48;9.60;;;3.17;;
8252;SDS011;61313;48.396;10.008;2023-07-13T06:34:13;12.30;;;3.30;;
8252;SDS011;61313;48.396;10.008;2023-07-13T06:36:39;9.93;;;3.60;;
8252;SDS011;61313;48.396;10.008;2023-07-13T06:39:04;13.07;;;3.27;;
8252;SDS011;61313;48.396;10.008;2023-07-13T06:41:31;10.73;;;4.33;;
8252;SDS011;61313;48.396;10.008;2023-07-13T06:43:58;21.80;;;4.10;;
8252;SDS011;61313;48.396;10.008;2023-07-13T06:46:23;8.17;;;3.40;;
8252;SDS011;61313;48.396;10.008;2023-07-13T06:48:49;19.30;;;5.50;;
8252;SDS011;61313;48.396;10.008;2023-07-13T06:51:15;7.20;;;3.20;;
8252;SDS011;61313;48.396;10.008;2023-07-13T06:53:40;8.77;;;2.90;;
8252;SDS011;61313;48.396;10.008;2023-07-13T06:56:07;17.80;;;4.00;;
8252;SDS011;61313;48.396;10.008;2023-07-13T06:58:33;11.33;;;2.80;;
8252;SDS011;61313;48.396;10.008;2023-07-13T07:00:59;4.97;;;2.97;;
8252;SDS011;61313;48.396;10.008;2023-07-13T07:03:24;7.07;;;2.30;;
8252;SDS011;61313;48.396;10.008;2023-07-13T07:05:50;9.33;;;2.90;;
8252;SDS011;61313;48.396;10.008;2023-07-13T07:08:15;25.13;;;3.90;;
8252;SDS011;61313;48.396;10.008;2023-07-13T07:10:41;18.73;;;3.40;;
8252;SDS011;61313;48.396;10.008;2023-07-13T07:13:07;9.33;;;3.00;;
8252;SDS011;61313;48.396;10.008;2023-07-13T07:15:33;6.47;;;2.43;;
8252;SDS011;61313;48.396;10.008;2023-07-13T07:18:00;11.30;;;2.90;;
8252;SDS011;61313;48.396;10.008;2023-07-13T07:20:25;17.40;;;3.63;;
8252;SDS011;61313;48.396;10.008;2023-07-13T07:22:51;33.30;;;6.40;;
8252;SDS011;61313;48.396;10.008;2023-07-13T07:25:17;19.23;;;4.53;;
8252;SDS011;61313;48.396;10.008;2023-07-13T07:27:43;10.47;;;2.93;;
8252;SDS011;61313;48.396;10.008;2023-07-13T07:30:08;11.87;;;2.87;;
8252;SDS011;61313;48.396;10.008;2023-07-13T07:32:34;16.27;;;3.13;;
8252;SDS011;61313;48.396;10.008;2023-07-13T07:35:00;13.83;;;3.03;;
8252;SDS011;61313;48.396;10.008;2023-07-13T07:37:25;8.40;;;2.37;;
8252;SDS011;61313;48.396;10.008;2023-07-13T07:39:50;4.67;;;2.13;;
8252;SDS011;61313;48.396;10.008;2023-07-13T07:42:16;27.80;;;4.33;;
8252;SDS011;61313;48.396;10.008;2023-07-13T07:44:42;14.80;;;3.03;;
8252;SDS011;61313;48.396;10.008;2023-07-13T07:47:08;15.50;;;3.27;;
8252;SDS011;61313;48.396;10.008;2023-07-13T07:49:34;16.83;;;3.37;;
8252;SDS011;61313;48.396;10.008;2023-07-13T07:52:00;4.23;;;2.13;;
8252;SDS011;61313;48.396;10.008;2023-07-13T07:54:25;21.30;;;3.10;;
8252;SDS011;61313;48.396;10.008;2023-07-13T07:56:51;7.00;;;2.77;;
8252;SDS011;61313;48.396;10.008;2023-07-13T07:59:16;5.83;;;2.13;;
8252;SDS011;61313;48.396;10.008;2023-07-13T08:01:41;8.90;;;2.80;;
8252;SDS011;61313;48.396;10.008;2023-07-13T08:04:08;5.00;;;2.23;;
8252;SDS011;61313;48.396;10.008;2023-07-13T08:06:34;8.10;;;2.70;;
8252;SDS011;61313;48.396;10.008;2023-07-13T08:08:59;46.40;;;6.67;;
8252;SDS011;61313;48.396;10.008;2023-07-13T08:11:26;16.50;;;4.27;;
8252;SDS011;61313;48.396;10.008;2023-07-13T08:13:51;11.53;;;3.33;;
8252;SDS011;61313;48.396;10.008;2023-07-13T08:16:17;15.97;;;4.07;;
8252;SDS011;61313;48.396;10.008;2023-07-13T08:18:42;3.97;;;2.67;;
8252;SDS011;61313;48.396;10.008;2023-07-13T08:21:08;4.23;;;2.50;;
8252;SDS011;61313;48.396;10.008;2023-07-13T08:23:34;5.50;;;3.07;;
8252;SDS011;61313;48.396;10.008;2023-07-13T08:26:00;3.60;;;2.23;;
8252;SDS011;61313;48.396;10.008;2023-07-13T08:28:26;21.77;;;3.60;;
8252;SDS011;61313;48.396;10.008;2023-07-13T08:30:53;7.10;;;3.00;;
8252;SDS011;61313;48.396;10.008;2023-07-13T08:33:19;5.33;;;2.27;;
8252;SDS011;61313;48.396;10.008;2023-07-13T08:35:46;6.60;;;2.80;;
8252;SDS011;61313;48.396;10.008;2023-07-13T08:38:12;16.40;;;3.97;;
8252;SDS011;61313;48.396;10.008;2023-07-13T08:40:39;3.40;;;2.50;;
8252;SDS011;61313;48.396;10.008;2023-07-13T08:43:04;8.00;;;2.70;;
8252;SDS011;61313;48.396;10.008;2023-07-13T08:45:37;10.63;;;3.27;;
8252;SDS011;61313;48.396;10.008;2023-07-13T08:48:09;3.53;;;2.73;;
8252;SDS011;61313;48.396;10.008;2023-07-13T08:50:51;6.77;;;2.80;;
8252;SDS011;61313;48.396;10.008;2023-07-13T08:53:27;4.97;;;2.63;;
8252;SDS011;61313;48.396;10.008;2023-07-13T08:55:59;6.17;;;2.90;;
8252;SDS011;61313;48.396;10.008;2023-07-13T08:58:26;4.83;;;2.90;;
8252;SDS011;61313;48.396;10.008;2023-07-13T09:03:37;3.97;;;2.83;;
8252;SDS011;61313;48.396;10.008;2023-07-13T09:06:08;4.67;;;2.83;;
8252;SDS011;61313;48.396;10.008;2023-07-13T09:08:51;6.00;;;2.87;;
8252;SDS011;61313;48.396;10.008;2023-07-13T09:14:26;8.63;;;2.80;;
8252;SDS011;61313;48.396;10.008;2023-07-13T09:16:56;10.23;;;2.93;;
8252;SDS011;61313;48.396;10.008;2023-07-13T09:19:24;9.50;;;3.13;;
8252;SDS011;61313;48.396;10.008;2023-07-13T09:21:54;6.27;;;3.10;;
8252;SDS011;61313;48.396;10.008;2023-07-13T09:27:15;9.93;;;3.10;;
8252;SDS011;61313;48.396;10.008;2023-07-13T09:29:49;7.87;;;2.80;;
8252;SDS011;61313;48.396;10.008;2023-07-13T09:32:21;5.30;;;2.67;;
8252;SDS011;61313;48.396;10.008;2023-07-13T09:34:50;4.40;;;3.27;;
8252;SDS011;61313;48.396;10.008;2023-07-13T09:37:16;4.43;;;2.80;;
8252;SDS011;61313;48.396;10.008;2023-07-13T09:39:43;32.80;;;4.80;;
8252;SDS011;61313;48.396;10.008;2023-07-13T09:42:17;31.23;;;4.07;;
8252;SDS011;61313;48.396;10.008;2023-07-13T09:44:56;7.50;;;2.90;;
8252;SDS011;61313;48.396;10.008;2023-07-13T09:47:24;9.60;;;3.03;;
8252;SDS011;61313;48.396;10.008;2023-07-13T09:49:57;7.50;;;2.60;;
8252;SDS011;61313;48.396;10.008;2023-07-13T09:52:25;8.33;;;2.40;;
8252;SDS011;61313;48.396;10.008;2023-07-13T09:54:54;18.23;;;3.63;;
8252;SDS011;61313;48.396;10.008;2023-07-13T09:57:24;9.53;;;3.17;;
8252;SDS011;61313;48.396;10.008;2023-07-13T09:59:53;11.50;;;2.93;;
8252;SDS011;61313;48.396;10.008;2023-07-13T10:02:25;15.57;;;4.20;;
8252;SDS011;61313;48.396;10.008;2023-07-13T10:05:00;25.40;;;5.00;;
8252;SDS011;61313;48.396;10.008;2023-07-13T10:07:28;4.33;;;2.37;;
8252;SDS011;61313;48.396;10.008;2023-07-13T10:09:54;4.40;;;2.63;;
8252;SDS011;61313;48.396;10.008;2023-07-13T10:12:21;3.17;;;2.40;;
8252;SDS011;61313;48.396;10.008;2023-07-13T10:14:50;3.70;;;2.23;;
8252;SDS011;61313;48.396;10.008;2023-07-13T10:17:19;2.93;;;2.27;;
8252;SDS011;61313;48.396;10.008;2023-07-13T10:19:55;5.20;;;2.77;;
8252;SDS011;61313;48.396;10.008;2023-07-13T10:23:02;4.57;;;2.13;;
8252;SDS011;61313;48.396;10.008;2023-07-13T10:25:25;6.80;;;2.50;;
8252;SDS011;61313;48.396;10.008;2023-07-13T10:27:53;2.43;;;2.00;;
8252;SDS011;61313;48.396;10.008;2023-07-13T10:30:30;4.47;;;2.70;;
8252;SDS011;61313;48.396;10.008;2023-07-13T10:33:00;4.30;;;2.13;;
8252;SDS011;61313;48.396;10.008;2023-07-13T10:35:29;5.87;;;2.63;;
8252;SDS011;61313;48.396;10.008;2023-07-13T10:38:17;10.00;;;3.20;;
8252;SDS011;61313;48.396;10.008;2023-07-13T10:43:53;14.60;;;3.50;;
8252;SDS011;61313;48.396;10.008;2023-07-13T10:46:24;9.17;;;2.97;;
8252;SDS011;61313;48.396;10.008;2023-07-13T10:48:57;7.83;;;2.83;;
8252;SDS011;61313;48.396;10.008;2023-07-13T10:51:25;3.80;;;2.77;;
8252;SDS011;61313;48.396;10.008;2023-07-13T10:56:34;8.47;;;3.10;;
8252;SDS011;61313;48.396;10.008;2023-07-13T10:59:14;15.27;;;4.07;;
8252;SDS011;61313;48.396;10.008;2023-07-13T11:04:16;4.83;;;2.70;;
8252;SDS011;61313;48.396;10.008;2023-07-13T11:06:43;4.90;;;2.50;;
8252;SDS011;61313;48.396;10.008;2023-07-13T11:09:28;7.43;;;2.97;;
8252;SDS011;61313;48.396;10.008;2023-07-13T11:12:10;5.10;;;2.77;;
8252;SDS011;61313;48.396;10.008;2023-07-13T11:22:42;5.33;;;2.60;;
8252;SDS011;61313;48.396;10.008;2023-07-13T11:25:31;7.50;;;2.83;;
8252;SDS011;61313;48.396;10.008;2023-07-13T11:33:03;6.87;;;2.67;;
8252;SDS011;61313;48.396;10.008;2023-07-13T11:35:38;4.30;;;2.20;;
8252;SDS011;61313;48.396;10.008;2023-07-13T11:38:20;7.80;;;3.13;;
8252;SDS011;61313;48.396;10.008;2023-07-13T11:40:50;4.40;;;3.00;;
8252;SDS011;61313;48.396;10.008;2023-07-13T11:43:18;5.47;;;2.27;;
8252;SDS011;61313;48.396;10.008;2023-07-13T11:45:43;6.63;;;2.70;;
8252;SDS011;61313;48.396;10.008;2023-07-13T11:50:49;4.83;;;3.60;;
8252;SDS011;61313;48.396;10.008;2023-07-13T11:53:16;58.80;;;8.93;;
8252;SDS011;61313;48.396;10.008;2023-07-13T11:55:42;4.67;;;2.60;;
8252;SDS011;61313;48.396;10.008;2023-07-13T11:58:07;4.73;;;2.37;;
8252;SDS011;61313;48.396;10.008;2023-07-13T12:00:35;6.83;;;2.70;;
8252;SDS011;61313;48.396;10.008;2023-07-13T12:03:03;5.97;;;2.40;;
8252;SDS011;61313;48.396;10.008;2023-07-13T12:05:30;8.40;;;3.57;;
8252;SDS011;61313;48.396;10.008;2023-07-13T12:07:57;8.03;;;3.40;;
8252;SDS011;61313;48.396;10.008;2023-07-13T12:10:24;4.07;;;2.83;;
8252;SDS011;61313;48.396;10.008;2023-07-13T12:13:02;13.90;;;3.40;;
8252;SDS011;61313;48.396;10.008;2023-07-13T12:15:37;11.87;;;2.77;;
8252;SDS011;61313;48.396;10.008;2023-07-13T12:18:17;3.33;;;2.53;;
8252;SDS011;61313;48.396;10.008;2023-07-13T12:20:45;5.50;;;2.13;;
8252;SDS011;61313;48.396;10.008;2023-07-13T12:23:28;4.20;;;2.70;;
8252;SDS011;61313;48.396;10.008;2023-07-13T12:25:56;7.10;;;2.50;;
8252;SDS011;61313;48.396;10.008;2023-07-13T12:28:34;3.20;;;2.20;;
8252;SDS011;61313;48.396;10.008;2023-07-13T12:31:03;4.97;;;2.73;;
8252;SDS011;61313;48.396;10.008;2023-07-13T12:33:31;9.30;;;2.70;;
8252;SDS011;61313;48.396;10.008;2023-07-13T12:36:02;97.97;;;11.87;;
8252;SDS011;61313;48.396;10.008;2023-07-13T12:38:31;23.60;;;4.60;;
8252;SDS011;61313;48.396;10.008;2023-07-13T12:40:57;18.73;;;4.40;;
8252;SDS011;61313;48.396;10.008;2023-07-13T12:43:24;10.63;;;3.00;;
8252;SDS011;61313;48.396;10.008;2023-07-13T12:48:28;6.90;;;2.67;;
8252;SDS011;61313;48.396;10.008;2023-07-13T12:50:54;6.20;;;3.13;;
8252;SDS011;61313;48.396;10.008;2023-07-13T12:53:29;13.90;;;3.30;;
8252;SDS011;61313;48.396;10.008;2023-07-13T12:55:59;5.23;;;2.47;;
8252;SDS011;61313;48.396;10.008;2023-07-13T12:58:28;15.63;;;3.50;;
8252;SDS011;61313;48.396;10.008;2023-07-13T13:00:57;8.83;;;2.47;;
8252;SDS011;61313;48.396;10.008;2023-07-13T13:03:31;18.23;;;4.63;;
8252;SDS011;61313;48.396;10.008;2023-07-13T13:06:02;4.87;;;2.67;;
8252;SDS011;61313;48.396;10.008;2023-07-13T13:08:32;2.97;;;2.47;;
8252;SDS011;61313;48.396;10.008;2023-07-13T13:10:58;9.70;;;2.60;;
8252;SDS011;61313;48.396;10.008;2023-07-13T13:13:24;8.23;;;2.90;;
8252;SDS011;61313;48.396;10.008;2023-07-13T13:15:49;8.53;;;2.50;;
8252;SDS011;61313;48.396;10.008;2023-07-13T13:18:19;7.10;;;2.60;;
8252;SDS011;61313;48.396;10.008;2023-07-13T13:20:46;4.30;;;2.20;;
8252;SDS011;61313;48.396;10.008;2023-07-13T13:23:13;8.47;;;2.97;;
8252;SDS011;61313;48.396;10.008;2023-07-13T13:25:42;3.73;;;2.23;;
8252;SDS011;61313;48.396;10.008;2023-07-13T13:28:16;5.13;;;2.43;;
8252;SDS011;61313;48.396;10.008;2023-07-13T13:30:44;10.80;;;3.37;;
8252;SDS011;61313;48.396;10.008;2023-07-13T13:33:11;17.60;;;4.80;;
8252;SDS011;61313;48.396;10.008;2023-07-13T13:35:37;25.70;;;4.80;;
8252;SDS011;61313;48.396;10.008;2023-07-13T13:38:09;8.30;;;2.27;;
8252;SDS011;61313;48.396;10.008;2023-07-13T13:40:37;6.33;;;2.60;;
8252;SDS011;61313;48.396;10.008;2023-07-13T13:43:04;6.43;;;2.67;;
8252;SDS011;61313;48.396;10.008;2023-07-13T13:45:39;22.33;;;4.23;;
8252;SDS011;61313;48.396;10.008;2023-07-13T13:48:05;8.20;;;2.70;;
8252;SDS011;61313;48.396;10.008;2023-07-13T13:50:30;7.27;;;2.63;;
8252;SDS011;61313;48.396;10.008;2023-07-13T13:52:55;18.93;;;3.57;;
8252;SDS011;61313;48.396;10.008;2023-07-13T13:55:21;4.97;;;2.30;;
8252;SDS011;61313;48.396;10.008;2023-07-13T13:57:49;4.30;;;2.10;;
8252;SDS011;61313;48.396;10.008;2023-07-13T14:00:15;10.47;;;2.17;;
8252;SDS011;61313;48.396;10.008;2023-07-13T14:02:45;6.50;;;2.03;;
8252;SDS011;61313;48.396;10.008;2023-07-13T14:05:13;7.63;;;2.00;;
8252;SDS011;61313;48.396;10.008;2023-07-13T14:07:41;12.10;;;2.60;;
8252;SDS011;61313;48.396;10.008;2023-07-13T14:10:11;7.70;;;2.50;;
8252;SDS011;61313;48.396;10.008;2023-07-13T14:12:38;9.07;;;2.80;;
8252;SDS011;61313;48.396;10.008;2023-07-13T14:15:04;20.27;;;3.87;;
8252;SDS011;61313;48.396;10.008;2023-07-13T14:17:30;6.37;;;3.70;;
8252;SDS011;61313;48.396;10.008;2023-07-13T14:19:56;3.60;;;2.47;;
8252;SDS011;61313;48.396;10.008;2023-07-13T14:22:25;6.10;;;2.33;;
8252;SDS011;61313;48.396;10.008;2023-07-13T14:24:55;6.53;;;2.83;;
8252;SDS011;61313;48.396;10.008;2023-07-13T14:27:22;12.70;;;2.87;;
8252;SDS011;61313;48.396;10.008;2023-07-13T14:29:49;8.80;;;2.70;;
8252;SDS011;61313;48.396;10.008;2023-07-13T14:32:15;9.53;;;2.43;;
8252;SDS011;61313;48.396;10.008;2023-07-13T14:34:41;12.47;;;3.20;;
8252;SDS011;61313;48.396;10.008;2023-07-13T14:37:11;11.03;;;3.03;;
8252;SDS011;61313;48.396;10.008;2023-07-13T14:39:39;15.43;;;3.50;;
8252;SDS011;61313;48.396;10.008;2023-07-13T14:42:08;6.23;;;2.70;;
8252;SDS011;61313;48.396;10.008;2023-07-13T14:44:34;8.40;;;3.73;;
8252;SDS011;61313;48.396;10.008;2023-07-13T14:47:02;14.70;;;2.60;;
8252;SDS011;61313;48.396;10.008;2023-07-13T14:52:03;20.73;;;5.77;;
8252;SDS011;61313;48.396;10.008;2023-07-13T14:54:36;10.07;;;4.03;;
8252;SDS011;61313;48.396;10.008;2023-07-13T14:57:07;29.20;;;4.87;;
8252;SDS011;61313;48.396;10.008;2023-07-13T14:59:37;6.00;;;2.70;;
8252;SDS011;61313;48.396;10.008;2023-07-13T15:02:09;7.63;;;3.13;;
8252;SDS011;61313;48.396;10.008;2023-07-13T15:04:40;8.20;;;2.60;;
8252;SDS011;61313;48.396;10.008;2023-07-13T15:07:05;9.57;;;2.70;;
8252;SDS011;61313;48.396;10.008;2023-07-13T15:09:35;12.37;;;2.80;;
8252;SDS011;61313;48.396;10.008;2023-07-13T15:12:01;13.20;;;2.97;;
8252;SDS011;61313;48.396;10.008;2023-07-13T15:14:26;3.30;;;2.30;;
8252;SDS011;61313;48.396;10.008;2023-07-13T15:16:53;29.40;;;5.17;;
8252;SDS011;61313;48.396;10.008;2023-07-13T15:19:21;12.70;;;3.27;;
8252;SDS011;61313;48.396;10.008;2023-07-13T15:21:48;10.37;;;3.13;;
8252;SDS011;61313;48.396;10.008;2023-07-13T15:24:15;21.93;;;3.40;;
8252;SDS011;61313;48.396;10.008;2023-07-13T15:26:41;26.80;;;5.07;;